aviador You're here:

OIZB Decoded Metar

ZABOL in IRAN
Report Time2018-02-20 03:00:00
UTC Time2018-02-20 03:30:19
Flight Rules mvfr MVFR
Wind350° at 19 kt
W.Decomp.*RWY 34: 18.8 kt HW 2.6 kt RCW
W.Rank350° ranks 4
Current wind is above 350° avg. (11.7)
Visibility7000 m
Phenomena:N/A
Clouds:N/A
Expected CloudBase > 4,400 ft AGL from Temp-Dew spread
CeilingNone
Temp14°C (ISA +2)
Dew Point03°C (48% RH)
AAT5.7°C
QNH1009 hPa
Density Alt2,106 ft
Elevation1,604 ft
Report Wrong Elevation
Raw Report
METAR OIZB 200300Z 35019KT 7000 NSC 14/03 Q1009=

Extra information for OIZB:More info

Metar Taf Metar & Taf Last 4 Metars F.Rules Stats Wind Profile Meteogram Temp Stats Airport Information Weather charts Add Link Nearby VenuesMetar ALERT Operation Metar Decoded Social comments